Time;durP1;ratioP1;P1;durP2;ratioP2;P2;SDS_P1;SDS_P2;PMS_P1;PMS_P2;Temp;Humidity;BMP_temperature;BMP_pressure;BME280_temperature;BME280_humidity;BME280_pressure;Samples;Min_cycle;Max_cycle;Signal;HPM_P1;HPM_P2
2021/04/30 00:01:58;;;;;;;4.17;3.77;;;;;;;18.72;48.34;99418.55;1780635;79;21169;-64
2021/04/30 00:04:27;;;;;;;4.42;4.03;;;;;;;18.71;48.36;99416.36;1755755;80;21560;-62
2021/04/30 00:06:55;;;;;;;3.65;3.35;;;;;;;18.71;48.36;99421.74;1760126;80;21176;-64
2021/04/30 00:09:24;;;;;;;4.20;3.80;;;;;;;18.71;48.39;99423.63;1770564;80;21194;-64
2021/04/30 00:11:52;;;;;;;5.00;4.17;;;;;;;18.71;48.41;99431.70;1777474;79;21131;-64
2021/04/30 00:14:20;;;;;;;3.90;3.47;;;;;;;18.69;48.42;99414.95;1763278;80;21195;-63
2021/04/30 00:16:49;;;;;;;3.77;3.47;;;;;;;18.68;48.43;99415.49;1780245;79;21124;-65
2021/04/30 00:19:19;;;;;;;4.30;3.90;;;;;;;18.68;48.44;99415.49;1785194;79;21183;-64
2021/04/30 00:21:47;;;;;;;4.33;3.92;;;;;;;18.66;48.50;99413.02;1791827;79;21214;-64
2021/04/30 00:24:15;;;;;;;4.22;3.83;;;;;;;18.67;48.50;99416.53;1804978;79;21187;-65
2021/04/30 00:26:43;;;;;;;3.90;3.60;;;;;;;18.65;48.51;99416.75;1768306;80;21152;-63
2021/04/30 00:29:10;;;;;;;3.70;3.40;;;;;;;18.66;48.54;99421.63;1754066;80;21163;-63
2021/04/30 00:31:38;;;;;;;4.12;3.72;;;;;;;18.65;48.53;99407.34;1761837;80;21549;-63
2021/04/30 00:34:05;;;;;;;3.75;3.42;;;;;;;18.65;48.57;99417.28;1749993;79;21208;-64
2021/04/30 00:36:34;;;;;;;4.42;3.45;;;;;;;18.58;48.57;99399.91;1767865;80;21167;-63
2021/04/30 00:39:02;;;;;;;3.70;3.40;;;;;;;18.63;48.61;99413.47;1772431;80;21151;-63
2021/04/30 00:41:30;;;;;;;3.92;3.60;;;;;;;18.63;48.61;99405.94;1787620;80;21190;-64
2021/04/30 00:44:06;;;;;;;4.37;3.62;;;;;;;18.62;48.65;99406.47;1787045;80;21131;-65
2021/04/30 00:46:33;;;;;;;4.70;4.30;;;;;;;18.62;48.68;99406.47;1780453;80;21416;-63
2021/04/30 00:49:02;;;;;;;4.30;3.90;;;;;;;18.61;48.67;99398.08;1777239;79;21163;-64
2021/04/30 00:51:31;;;;;;;3.87;3.58;;;;;;;18.61;48.68;99394.58;1771075;80;21254;-64
2021/04/30 00:53:59;;;;;;;4.20;3.80;;;;;;;18.60;48.72;99409.91;1779217;79;21211;-64
2021/04/30 00:56:26;;;;;;;3.42;3.12;;;;;;;18.60;48.72;99399.16;1777567;79;21607;-63
2021/04/30 00:58:54;;;;;;;4.00;3.70;;;;;;;18.59;48.74;99401.53;1769315;80;21476;-64
2021/04/30 01:01:22;;;;;;;4.35;3.90;;;;;;;18.60;48.76;99401.00;1789588;79;21157;-63
2021/04/30 01:03:50;;;;;;;5.12;3.72;;;;;;;18.59;48.77;99405.56;1778811;80;21235;-66
2021/04/30 01:06:17;;;;;;;3.62;3.30;;;;;;;18.59;48.77;99393.45;1804284;79;21159;-63
2021/04/30 01:08:47;;;;;;;3.75;3.45;;;;;;;18.58;48.81;99396.38;1776468;79;21178;-63
2021/04/30 01:11:14;;;;;;;4.30;3.90;;;;;;;18.57;48.82;99394.22;1779133;79;21208;-64
2021/04/30 01:13:42;;;;;;;3.90;3.58;;;;;;;18.58;48.83;99393.18;1780029;79;21611;-63
2021/04/30 01:16:09;;;;;;;4.95;4.45;;;;;;;18.56;48.85;99384.52;1773216;79;21115;-64
2021/04/30 01:18:46;;;;;;;4.37;3.95;;;;;;;18.56;48.89;99381.83;1791028;79;21191;-65
2021/04/30 01:21:14;;;;;;;4.80;3.70;;;;;;;18.56;48.90;99383.17;1778228;79;21143;-64
2021/04/30 01:23:48;;;;;;;4.35;3.95;;;;;;;18.56;48.92;99384.52;1738183;81;21362;-64
2021/04/30 01:26:17;;;;;;;4.37;3.75;;;;;;;18.55;48.95;99381.52;1764388;80;21591;-65
2021/04/30 01:28:45;;;;;;;3.65;3.35;;;;;;;18.55;48.95;99378.83;1779148;80;21203;-64
2021/04/30 01:31:15;;;;;;;3.85;3.50;;;;;;;18.54;49.00;99375.02;1747263;81;21191;-64
2021/04/30 01:33:44;;;;;;;3.77;3.47;;;;;;;18.55;49.03;99384.74;1781008;79;21184;-64
2021/04/30 01:36:11;;;;;;;4.28;3.87;;;;;;;18.54;49.02;99376.36;1779992;80;22891;-63
2021/04/30 01:38:39;;;;;;;3.90;3.60;;;;;;;18.53;49.06;99372.05;1757193;80;21176;-64
2021/04/30 01:41:07;;;;;;;3.92;3.55;;;;;;;18.52;49.05;99376.59;1741767;81;21143;-65
2021/04/30 01:43:36;;;;;;;3.52;3.20;;;;;;;18.52;49.07;99368.52;1780699;80;21192;-64
2021/04/30 01:46:06;;;;;;;4.53;3.47;;;;;;;18.52;49.08;99366.36;1778937;80;21200;-64
2021/04/30 01:48:35;;;;;;;4.30;3.90;;;;;;;18.51;49.11;99365.55;1780187;80;22216;-64
2021/04/30 01:51:04;;;;;;;4.42;4.03;;;;;;;18.51;49.14;99365.55;1753013;80;21175;-64
2021/04/30 01:53:35;;;;;;;4.42;4.03;;;;;;;18.51;49.18;99366.89;1779411;80;21137;-64
2021/04/30 01:57:11;;;;;;;3.98;3.60;;;;;;;18.55;49.21;99359.19;1864510;76;22775;-63
2021/04/30 01:59:39;;;;;;;3.67;3.35;;;;;;;18.50;49.21;99359.05;1841012;75;20994;-64
2021/04/30 02:02:09;;;;;;;4.15;3.80;;;;;;;18.49;49.23;99358.77;1857793;77;21428;-65
2021/04/30 02:04:37;;;;;;;4.03;3.72;;;;;;;18.50;49.26;99356.36;1841648;75;21185;-63
2021/04/30 02:07:08;;;;;;;3.90;3.50;;;;;;;18.50;49.24;99356.36;1842505;77;21108;-64
2021/04/30 02:09:38;;;;;;;4.85;3.30;;;;;;;18.49;49.23;99358.23;1828871;77;21631;-64
2021/04/30 02:12:08;;;;;;;3.92;3.52;;;;;;;18.49;49.26;99354.73;1812461;78;21127;-65
2021/04/30 02:14:35;;;;;;;3.90;3.52;;;;;;;18.48;49.27;99348.52;1827816;75;21432;-64
2021/04/30 02:17:05;;;;;;;4.00;3.70;;;;;;;18.47;49.30;99345.02;1844652;75;22678;-64
2021/04/30 02:19:35;;;;;;;3.72;3.42;;;;;;;18.46;49.34;99340.66;1846582;77;21176;-64
2021/04/30 02:22:03;;;;;;;4.12;3.83;;;;;;;18.46;49.34;99342.02;1835247;75;21187;-65
2021/04/30 02:24:31;;;;;;;3.92;3.62;;;;;;;18.45;49.36;99338.23;1847320;75;21115;-65
2021/04/30 02:26:59;;;;;;;3.95;3.52;;;;;;;18.46;49.39;99333.13;1834312;75;22038;-65
2021/04/30 02:29:26;;;;;;;3.90;3.60;;;;;;;18.45;49.41;99332.85;1836910;75;21183;-64
2021/04/30 02:31:54;;;;;;;5.28;3.83;;;;;;;18.44;49.43;99331.20;1847230;75;21152;-64
2021/04/30 02:34:21;;;;;;;4.03;3.72;;;;;;;18.44;49.42;99337.92;1842673;77;21150;-66
2021/04/30 02:36:49;;;;;;;4.25;3.85;;;;;;;18.44;49.46;99339.27;1847631;77;21220;-63
2021/04/30 02:39:16;;;;;;;3.67;3.37;;;;;;;18.43;49.49;99341.67;1853967;75;21397;-65
2021/04/30 02:41:43;;;;;;;4.22;3.83;;;;;;;18.43;49.49;99345.17;1785733;79;21166;-65
2021/04/30 02:44:11;;;;;;;4.10;3.80;;;;;;;18.42;49.55;99350.78;1809829;77;21135;-64
2021/04/30 02:46:39;;;;;;;4.12;3.70;;;;;;;18.42;49.52;99348.91;1798692;78;21193;-65
2021/04/30 02:49:06;;;;;;;4.53;4.12;;;;;;;18.42;49.56;99349.44;1801713;78;21134;-64
2021/04/30 02:51:34;;;;;;;4.03;3.62;;;;;;;18.42;49.56;99342.71;1770831;79;22280;-64
2021/04/30 02:54:02;;;;;;;3.80;3.50;;;;;;;18.41;49.58;99337.05;1813051;77;21183;-64
2021/04/30 02:56:29;;;;;;;3.92;3.60;;;;;;;18.40;49.59;99341.59;1769007;78;21583;-63
2021/04/30 02:58:56;;;;;;;5.58;4.20;;;;;;;18.41;49.60;99347.81;1718848;82;21192;-63
2021/04/30 03:01:28;;;;;;;3.75;3.45;;;;;;;18.40;49.64;99348.84;1764675;79;21168;-63
2021/04/30 03:03:55;;;;;;;4.45;4.05;;;;;;;18.39;49.70;99342.66;1770232;80;21602;-63
2021/04/30 03:06:24;;;;;;;3.62;3.33;;;;;;;18.39;49.70;99340.50;1788446;78;21149;-63
2021/04/30 03:08:53;;;;;;;4.10;3.70;;;;;;;18.38;49.73;99342.34;1797348;78;21146;-64
2021/04/30 03:11:21;;;;;;;3.55;3.25;;;;;;;18.40;49.77;99343.47;1816375;78;21165;-65
2021/04/30 03:13:50;;;;;;;3.80;3.50;;;;;;;18.38;49.78;99336.16;1797483;78;21141;-64
2021/04/30 03:16:18;;;;;;;4.03;3.62;;;;;;;18.38;49.76;99337.50;1784691;78;21376;-65
2021/04/30 03:18:46;;;;;;;4.12;3.83;;;;;;;18.37;49.80;99338.53;1762204;78;21603;-65
2021/04/30 03:21:15;;;;;;;3.98;3.67;;;;;;;18.38;49.81;99337.50;1771946;78;21151;-64
2021/04/30 03:23:42;;;;;;;4.20;3.58;;;;;;;18.37;49.82;99340.72;1768023;78;21600;-64
2021/04/30 03:26:10;;;;;;;3.70;3.40;;;;;;;18.37;49.87;99354.67;1776664;78;21591;-62
2021/04/30 03:28:39;;;;;;;3.70;3.40;;;;;;;18.36;49.91;99351.16;1782219;79;21208;-64
2021/04/30 03:31:06;;;;;;;4.55;3.87;;;;;;;18.36;49.93;99342.28;1774490;79;21147;-63
2021/04/30 03:33:33;;;;;;;4.45;4.05;;;;;;;18.36;49.94;99344.98;1783867;78;21126;-63
2021/04/30 03:36:01;;;;;;;4.42;4.03;;;;;;;18.35;49.96;99341.48;1802018;77;21253;-64
2021/04/30 03:38:30;;;;;;;4.47;4.08;;;;;;;18.36;50.00;99348.48;1788610;79;21135;-63
2021/04/30 03:40:57;;;;;;;4.28;3.83;;;;;;;18.37;50.00;99342.56;1791383;78;21481;-64
2021/04/30 03:43:24;;;;;;;4.78;4.28;;;;;;;18.37;50.04;99335.84;1799395;78;21473;-64
2021/04/30 03:45:52;;;;;;;4.60;4.00;;;;;;;18.37;50.08;99343.91;1787749;78;21569;-63
2021/04/30 03:48:21;;;;;;;3.55;3.25;;;;;;;18.37;50.09;99342.06;1802501;78;21111;-64
2021/04/30 03:50:48;;;;;;;3.87;3.52;;;;;;;18.36;50.13;99328.31;1795655;77;21556;-63
2021/04/30 03:53:16;;;;;;;3.92;3.47;;;;;;;18.37;50.12;99338.03;1787871;78;22255;-63
2021/04/30 03:55:44;;;;;;;4.33;3.92;;;;;;;18.38;50.17;99350.41;1794114;77;21298;-63
2021/04/30 03:58:13;;;;;;;3.87;3.58;;;;;;;18.39;50.14;99339.16;1792072;78;21139;-63
2021/04/30 04:00:40;;;;;;;3.80;3.47;;;;;;;18.38;50.19;99349.06;1794763;78;21135;-64
2021/04/30 04:03:08;;;;;;;3.85;3.50;;;;;;;18.40;50.18;99348.84;1802065;78;21156;-63
2021/04/30 04:05:36;;;;;;;4.28;3.87;;;;;;;18.39;50.24;99347.22;1796772;78;21383;-65
2021/04/30 04:08:05;;;;;;;4.10;3.70;;;;;;;18.40;50.27;99332.70;1810035;78;21183;-65
2021/04/30 04:10:32;;;;;;;5.70;3.80;;;;;;;18.39;50.25;99330.55;1805885;79;21119;-65
2021/04/30 04:12:59;;;;;;;3.83;3.50;;;;;;;18.40;50.31;99332.70;1805324;79;21184;-64
2021/04/30 04:15:29;;;;;;;4.10;3.70;;;;;;;18.41;50.32;99330.33;1795300;78;21938;-65
2021/04/30 04:17:56;;;;;;;3.70;3.40;;;;;;;18.41;50.28;99337.05;1793726;78;21443;-64
2021/04/30 04:20:24;;;;;;;3.98;3.65;;;;;;;18.42;50.35;99336.80;1803781;78;21168;-64
2021/04/30 04:22:51;;;;;;;4.03;3.40;;;;;;;18.43;50.40;99335.77;1784136;78;21191;-64
2021/04/30 04:25:18;;;;;;;4.08;3.67;;;;;;;18.45;50.33;99338.23;1806159;78;21135;-62
2021/04/30 04:27:46;;;;;;;3.87;3.58;;;;;;;18.47;50.34;99333.44;1799679;78;21128;-63
2021/04/30 04:30:15;;;;;;;4.30;3.90;;;;;;;18.49;50.26;99327.84;1801389;78;21350;-63
2021/04/30 04:32:43;;;;;;;3.75;3.42;;;;;;;18.49;50.25;99325.95;1787074;78;21176;-63
2021/04/30 04:35:11;;;;;;;3.77;3.47;;;;;;;18.50;50.16;99324.89;1803181;79;21128;-64
2021/04/30 04:37:38;;;;;;;4.35;3.47;;;;;;;18.53;50.13;99326.33;1793485;78;21192;-63
2021/04/30 04:40:08;;;;;;;3.98;3.37;;;;;;;18.55;50.14;99320.19;1809051;78;21135;-63
2021/04/30 04:42:35;;;;;;;4.17;3.77;;;;;;;18.57;50.14;99318.09;1799562;78;22255;-65
2021/04/30 04:45:05;;;;;;;3.72;3.33;;;;;;;18.59;50.13;99321.36;1799350;78;21671;-63
2021/04/30 04:47:33;;;;;;;3.17;2.87;;;;;;;18.62;50.15;99324.92;1794532;79;21607;-64
2021/04/30 04:50:00;;;;;;;3.47;3.17;;;;;;;18.64;50.20;99306.70;1795316;79;21147;-63
2021/04/30 04:52:28;;;;;;;4.05;3.27;;;;;;;18.65;50.24;99318.55;1796744;78;21171;-63
2021/04/30 04:54:56;;;;;;;4.75;3.22;;;;;;;18.69;50.32;99306.00;1791143;78;22362;-66
2021/04/30 04:57:23;;;;;;;3.60;3.30;;;;;;;18.71;50.32;99301.20;1798229;78;21611;-64
2021/04/30 04:59:51;;;;;;;3.45;3.15;;;;;;;18.73;50.39;99301.78;1796676;78;21584;-64
2021/04/30 05:02:18;;;;;;;3.95;3.60;;;;;;;18.75;50.40;99307.75;1792093;78;21143;-63
2021/04/30 05:04:46;;;;;;;4.03;3.67;;;;;;;18.77;50.47;99309.69;1798688;78;21132;-64
2021/04/30 05:07:13;;;;;;;3.65;3.35;;;;;;;18.79;50.51;99313.77;1779476;79;21341;-63
2021/04/30 05:09:41;;;;;;;5.03;3.35;;;;;;;18.81;50.55;99306.84;1767813;79;21900;-63
2021/04/30 05:12:09;;;;;;;3.92;3.25;;;;;;;18.84;50.50;99306.40;1839968;77;21181;-64
2021/04/30 05:14:37;;;;;;;4.47;3.55;;;;;;;18.85;50.56;99316.09;1838174;76;21204;-64
2021/04/30 05:17:06;;;;;;;3.10;2.83;;;;;;;18.86;50.54;99315.05;1845166;76;21142;-64
2021/04/30 05:19:34;;;;;;;3.77;3.40;;;;;;;18.88;50.58;99320.22;1834830;76;21394;-65
2021/04/30 05:22:06;;;;;;;4.15;3.72;;;;;;;18.90;50.64;99317.57;1841438;76;21177;-65
2021/04/30 05:24:34;;;;;;;3.52;2.87;;;;;;;18.92;50.60;99316.00;1832725;76;21199;-64
2021/04/30 05:27:05;;;;;;;3.45;3.15;;;;;;;18.93;50.67;99321.66;1813944;77;21188;-64
2021/04/30 05:29:34;;;;;;;3.42;3.12;;;;;;;18.95;50.68;99317.70;1828435;77;21215;-65
2021/04/30 05:32:01;;;;;;;4.47;3.50;;;;;;;18.96;50.57;99305.87;1827571;76;21431;-64
2021/04/30 05:34:30;;;;;;;4.05;3.58;;;;;;;18.99;50.72;99298.69;1842275;76;21200;-64
2021/04/30 05:36:58;;;;;;;3.72;3.42;;;;;;;19.01;50.79;99304.66;1837538;76;21125;-66
2021/04/30 05:39:25;;;;;;;4.10;3.30;;;;;;;19.02;50.60;99309.50;1849028;77;21160;-66
2021/04/30 05:41:52;;;;;;;3.67;3.15;;;;;;;19.03;50.62;99309.27;1828847;77;21393;-64
2021/04/30 05:44:20;;;;;;;3.85;3.55;;;;;;;19.04;50.58;99310.92;1824658;76;22057;-65
2021/04/30 05:46:47;;;;;;;3.72;3.42;;;;;;;19.08;50.66;99302.36;1833346;76;21655;-65
2021/04/30 05:49:15;;;;;;;4.40;3.45;;;;;;;19.09;50.66;99304.02;1819613;76;21644;-64
2021/04/30 05:51:43;;;;;;;3.85;3.47;;;;;;;19.09;50.53;99295.41;1836923;76;21640;-64
2021/04/30 05:54:11;;;;;;;5.28;3.52;;;;;;;19.11;50.54;99312.67;1844840;76;21161;-63
2021/04/30 05:56:38;;;;;;;4.20;3.80;;;;;;;19.13;50.63;99310.56;1829437;77;21379;-64
2021/04/30 05:59:06;;;;;;;3.85;3.50;;;;;;;19.14;50.55;99292.00;1848299;76;21141;-64
2021/04/30 06:01:33;;;;;;;4.12;3.27;;;;;;;19.17;50.52;99298.27;1821424;76;21161;-63
2021/04/30 06:04:00;;;;;;;3.58;3.27;;;;;;;19.17;50.76;99299.08;1817159;76;21128;-63
2021/04/30 06:06:28;;;;;;;3.62;3.33;;;;;;;19.18;50.71;99295.34;1826240;76;21135;-63
2021/04/30 06:08:55;;;;;;;3.98;3.42;;;;;;;19.20;50.73;99299.13;1843039;76;21362;-63
2021/04/30 06:11:22;;;;;;;3.92;3.47;;;;;;;19.22;50.79;99313.20;1820354;77;21584;-63
2021/04/30 06:13:51;;;;;;;3.70;3.00;;;;;;;19.24;50.88;99305.70;1819004;76;21151;-64
2021/04/30 06:16:18;;;;;;;3.70;3.40;;;;;;;19.26;50.87;99296.86;1834772;76;21181;-64
2021/04/30 06:18:45;;;;;;;4.53;3.47;;;;;;;19.29;50.69;99304.98;1817939;76;21144;-63
2021/04/30 06:21:13;;;;;;;3.58;3.25;;;;;;;19.31;50.53;99313.65;1824969;76;21340;-63
2021/04/30 06:23:41;;;;;;;3.60;3.30;;;;;;;19.33;50.44;99304.80;1839471;76;21175;-65
2021/04/30 06:26:09;;;;;;;3.60;3.25;;;;;;;19.36;50.34;99304.34;1830236;76;21157;-64
2021/04/30 06:28:36;;;;;;;3.47;3.17;;;;;;;19.37;50.25;99301.92;1826299;76;21208;-64
2021/04/30 06:31:04;;;;;;;4.20;3.47;;;;;;;19.39;50.25;99304.70;1825773;76;21152;-64
2021/04/30 06:33:31;;;;;;;3.50;3.20;;;;;;;19.43;50.20;99300.97;1829099;76;21370;-64
2021/04/30 06:35:59;;;;;;;4.95;3.58;;;;;;;19.44;50.13;99289.97;1832324;77;21163;-65
2021/04/30 06:38:27;;;;;;;5.40;3.47;;;;;;;19.46;50.00;99287.05;1840166;76;21953;-65
2021/04/30 06:40:54;;;;;;;5.35;3.80;;;;;;;19.48;50.10;99294.36;1840444;76;21144;-64
2021/04/30 06:43:22;;;;;;;4.75;3.80;;;;;;;19.51;50.10;99298.44;1832659;76;21101;-65
2021/04/30 06:45:49;;;;;;;4.05;3.15;;;;;;;19.52;50.20;99304.95;1828593;76;21414;-65
2021/04/30 06:48:17;;;;;;;3.80;3.40;;;;;;;19.54;50.13;99298.79;1846819;76;21231;-67
2021/04/30 06:50:45;;;;;;;4.55;3.77;;;;;;;19.57;50.12;99308.30;1774090;79;21159;-66
2021/04/30 06:53:12;;;;;;;3.72;3.42;;;;;;;19.57;50.03;99310.45;1760918;79;21635;-66
2021/04/30 06:55:39;;;;;;;4.00;3.40;;;;;;;19.59;50.11;99304.83;1770059;78;21581;-64
2021/04/30 06:58:07;;;;;;;3.67;3.08;;;;;;;19.61;50.07;99308.11;1780942;79;21631;-63
2021/04/30 07:00:35;;;;;;;4.20;3.77;;;;;;;19.62;50.05;99286.83;1779363;79;21661;-65
2021/04/30 07:03:02;;;;;;;3.12;2.83;;;;;;;19.63;50.06;99287.94;1779073;77;21170;-66
2021/04/30 07:05:30;;;;;;;4.75;3.83;;;;;;;19.64;50.00;99290.94;1794305;79;21146;-65
2021/04/30 07:08:01;;;;;;;3.90;3.55;;;;;;;19.66;50.12;99297.41;1802642;79;21193;-66
2021/04/30 07:10:32;;;;;;;3.90;3.60;;;;;;;19.69;50.07;99298.30;1780007;79;22178;-66
2021/04/30 07:13:00;;;;;;;3.85;3.40;;;;;;;19.71;49.99;99296.72;1778450;79;21122;-67
2021/04/30 07:15:27;;;;;;;3.60;3.22;;;;;;;19.73;49.89;99300.02;1774657;79;21202;-66
2021/04/30 07:17:55;;;;;;;3.58;3.20;;;;;;;19.76;49.77;99308.95;1727588;82;21214;-66
2021/04/30 07:20:22;;;;;;;4.08;3.30;;;;;;;19.78;49.80;99286.13;1789651;79;21208;-64
2021/04/30 07:22:51;;;;;;;3.37;3.08;;;;;;;19.79;50.01;99294.48;1782298;78;21195;-64
2021/04/30 07:25:19;;;;;;;3.55;3.25;;;;;;;19.84;49.98;99298.63;1796382;77;21206;-64
2021/04/30 07:27:46;;;;;;;4.47;4.08;;;;;;;19.88;49.98;99289.54;1784481;79;21157;-71
2021/04/30 07:30:15;;;;;;;8.03;6.85;;;;;;;19.90;50.18;99263.16;1722865;81;21123;-64
2021/04/30 07:32:43;;;;;;;7.28;6.33;;;;;;;19.95;53.60;99261.92;1784332;79;21562;-67
2021/04/30 07:35:12;;;;;;;8.33;6.12;;;;;;;20.08;54.92;99247.30;1789337;79;21367;-63
2021/04/30 07:37:39;;;;;;;8.58;6.67;;;;;;;20.24;55.32;99251.08;1782795;77;21622;-64
2021/04/30 07:40:08;;;;;;;9.45;7.00;;;;;;;20.38;55.42;99271.84;1713185;81;21171;-65
2021/04/30 07:42:37;;;;;;;8.33;6.50;;;;;;;20.51;55.89;99279.59;1778146;79;21142;-65
2021/04/30 07:45:06;;;;;;;11.90;7.33;;;;;;;20.62;56.08;99259.84;1739527;82;21154;-64
2021/04/30 07:47:33;;;;;;;14.78;7.72;;;;;;;20.74;56.07;99268.39;1741593;82;21368;-64
2021/04/30 07:50:02;;;;;;;14.83;7.33;;;;;;;20.83;55.88;99266.91;1778341;79;21202;-64
2021/04/30 07:52:29;;;;;;;12.63;7.47;;;;;;;20.93;55.61;99282.45;1762562;81;21190;-63
2021/04/30 07:54:57;;;;;;;10.35;7.30;;;;;;;20.99;56.58;99282.26;1784356;79;21355;-63
2021/04/30 07:57:24;;;;;;;12.82;7.05;;;;;;;21.03;56.78;99298.79;1808030;75;21164;-63
2021/04/30 07:59:51;;;;;;;12.60;7.62;;;;;;;21.04;56.95;99278.84;1826182;75;21437;-64
2021/04/30 08:02:19;;;;;;;9.38;6.08;;;;;;;21.04;56.98;99271.28;1822638;75;21168;-63
2021/04/30 08:04:47;;;;;;;11.22;5.97;;;;;;;21.03;57.13;99289.34;1822552;75;21148;-64
2021/04/30 08:07:15;;;;;;;12.63;6.75;;;;;;;21.01;57.38;99276.11;1829574;77;21184;-64
2021/04/30 08:09:53;;;;;;;10.35;6.37;;;;;;;20.98;57.29;99265.79;1855223;77;21156;-65
2021/04/30 08:12:19;;;;;;;7.72;6.10;;;;;;;20.96;57.48;99277.91;1856670;77;21438;-64
2021/04/30 08:14:46;;;;;;;10.20;6.42;;;;;;;20.93;57.69;99281.91;1856822;77;22167;-65
2021/04/30 08:17:14;;;;;;;12.93;6.70;;;;;;;20.90;57.84;99254.07;1851990;77;21148;-63
2021/04/30 08:19:42;;;;;;;8.15;6.03;;;;;;;20.89;57.85;99261.87;1856719;77;21099;-65
2021/04/30 08:22:10;;;;;;;14.30;6.67;;;;;;;20.88;58.05;99261.60;1856313;77;21109;-64
2021/04/30 08:24:37;;;;;;;8.13;6.15;;;;;;;20.86;58.01;99246.19;1856668;77;22220;-64
2021/04/30 08:27:05;;;;;;;6.42;5.80;;;;;;;20.84;58.13;99250.98;1856545;77;21136;-64
2021/04/30 08:29:32;;;;;;;9.43;6.10;;;;;;;20.83;58.14;99253.42;1856790;77;21124;-63
2021/04/30 08:31:59;;;;;;;8.13;5.50;;;;;;;20.81;58.19;99260.41;1856533;77;21141;-65
2021/04/30 08:34:27;;;;;;;9.08;5.53;;;;;;;20.81;58.34;99259.59;1856562;77;21208;-64
2021/04/30 08:36:57;;;;;;;7.28;5.42;;;;;;;20.80;58.35;99251.20;1853541;77;21434;-64
2021/04/30 08:39:24;;;;;;;6.42;5.40;;;;;;;20.79;58.28;99234.73;1856526;77;21655;-65
2021/04/30 08:41:52;;;;;;;7.33;5.65;;;;;;;20.80;58.17;99226.91;1856682;77;21544;-63
2021/04/30 08:44:19;;;;;;;8.20;6.10;;;;;;;20.79;58.29;99232.84;1856512;77;21654;-64
2021/04/30 08:46:46;;;;;;;5.97;5.20;;;;;;;20.79;58.38;99234.20;1856637;77;21584;-63
2021/04/30 08:49:13;;;;;;;6.53;5.65;;;;;;;20.80;58.23;99239.05;1856542;77;21596;-63
2021/04/30 08:51:41;;;;;;;6.25;5.58;;;;;;;20.81;58.20;99229.91;1856536;77;21617;-62
2021/04/30 08:54:09;;;;;;;8.20;5.78;;;;;;;20.83;58.22;99222.91;1856494;77;21167;-64
2021/04/30 08:56:44;;;;;;;7.08;5.08;;;;;;;20.83;58.08;99225.07;1856489;77;21200;-64
2021/04/30 08:59:07;;;;;;;6.72;5.53;;;;;;;20.85;58.00;99231.04;1860341;77;21151;-64
2021/04/30 09:01:35;;;;;;;5.55;4.95;;;;;;;20.87;57.86;99220.00;1862407;77;21374;-64
2021/04/30 09:04:07;;;;;;;7.78;5.25;;;;;;;20.89;57.79;99211.12;1862238;77;21183;-64
2021/04/30 09:06:36;;;;;;;6.60;5.12;;;;;;;20.91;57.44;99218.44;1862284;77;21568;-65
2021/04/30 09:09:17;;;;;;;7.12;5.00;;;;;;;20.92;57.08;99207.39;1862148;77;21612;-65
2021/04/30 09:11:51;;;;;;;6.28;5.00;;;;;;;20.95;56.77;99203.37;1862307;77;21148;-63
2021/04/30 09:17:15;;;;;;;5.22;4.58;;;;;;;21.06;56.17;99205.14;1809358;76;23223;-65
2021/04/30 09:19:56;;;;;;;5.72;4.70;;;;;;;21.06;56.00;99202.44;1780533;78;21166;-64
2021/04/30 09:22:31;;;;;;;5.08;4.35;;;;;;;21.10;55.77;99197.36;1781473;80;21376;-64
2021/04/30 09:25:01;;;;;;;6.47;4.37;;;;;;;21.14;55.55;99202.54;1781347;80;21059;-63
2021/04/30 09:27:46;;;;;;;5.28;4.80;;;;;;;21.17;55.34;99191.22;1780431;80;21613;-64
2021/04/30 09:30:19;;;;;;;7.33;5.03;;;;;;;21.23;55.18;99208.31;1782075;78;21148;-65
2021/04/30 09:33:12;;;;;;;4.97;4.50;;;;;;;21.27;55.12;99199.47;1780506;78;21040;-72
2021/04/30 09:35:46;;;;;;;5.33;4.70;;;;;;;21.32;54.95;99191.41;1781148;78;21195;-73
2021/04/30 09:38:32;;;;;;;5.05;4.55;;;;;;;21.36;54.77;99187.16;1781775;78;21642;-72
2021/04/30 09:41:11;;;;;;;5.25;4.75;;;;;;;21.41;54.65;99188.55;1781381;80;21114;-73
2021/04/30 09:43:47;;;;;;;4.70;4.20;;;;;;;21.48;54.57;99197.02;1781546;78;21126;-73
2021/04/30 09:46:32;;;;;;;6.20;4.75;;;;;;;21.55;54.67;99189.55;1780373;78;21170;-66
2021/04/30 09:49:08;;;;;;;4.60;4.03;;;;;;;21.63;54.73;99193.68;1782604;80;21384;-63
2021/04/30 09:51:51;;;;;;;5.45;4.67;;;;;;;21.71;54.75;99179.19;1782004;78;21150;-64
2021/04/30 09:54:27;;;;;;;5.17;3.83;;;;;;;21.79;54.93;99185.48;1782661;78;21190;-62
2021/04/30 09:57:21;;;;;;;4.60;3.85;;;;;;;21.89;55.11;99183.41;1782130;78;21141;-64
2021/04/30 09:59:59;;;;;;;5.60;4.45;;;;;;;21.96;55.10;99188.59;1783619;79;21117;-63
2021/04/30 10:02:29;;;;;;;4.65;4.15;;;;;;;22.06;55.04;99176.53;1781312;78;21374;-63
2021/04/30 10:05:01;;;;;;;5.35;4.17;;;;;;;22.14;54.96;99172.55;1779533;78;21157;-64
2021/04/30 10:07:33;;;;;;;4.70;3.98;;;;;;;22.23;54.93;99194.52;1757204;80;21641;-72
2021/04/30 10:10:18;;;;;;;5.12;3.95;;;;;;;22.29;54.69;99169.99;1747543;78;25536;-73
2021/04/30 10:13:01;;;;;;;6.92;5.45;;;;;;;22.34;54.70;99158.38;1833101;76;23329;-70
2021/04/30 10:15:28;;;;;;;6.65;5.22;;;;;;;22.44;52.56;99151.67;1811701;78;21562;-77
2021/04/30 10:17:57;;;;;;;10.45;5.30;;;;;;;22.53;50.91;99157.43;1836262;77;21359;-75
2021/04/30 10:20:25;;;;;;;8.63;5.92;;;;;;;22.64;50.20;99156.42;1846187;77;21186;-77
2021/04/30 10:22:54;;;;;;;9.15;5.05;;;;;;;22.75;50.05;99141.03;1779525;80;21164;-76
2021/04/30 10:25:21;;;;;;;9.45;6.15;;;;;;;22.85;49.09;99150.59;1784209;80;21147;-76
2021/04/30 10:27:52;;;;;;;7.90;5.40;;;;;;;22.95;48.46;99149.27;1784468;79;21159;-77
2021/04/30 10:30:36;;;;;;;11.43;5.50;;;;;;;23.07;47.98;99157.75;1790307;79;21333;-75
2021/04/30 10:33:41;;;;;;;6.62;5.12;;;;;;;23.15;47.52;99137.72;1757520;80;21123;-75
2021/04/30 10:36:29;;;;;;;6.85;5.50;;;;;;;23.26;47.65;99135.06;1770714;80;21122;-76
2021/04/30 10:38:56;;;;;;;;;;;;;;;23.34;48.28;99140.77;1787298;80;21178;-71
2021/04/30 10:41:38;;;;;;;10.40;5.60;;;;;;;23.42;47.81;99150.82;1783019;80;20250;-71
2021/04/30 10:44:18;;;;;;;7.90;5.33;;;;;;;23.42;48.02;99146.21;1807709;79;21376;-70
2021/04/30 10:46:46;;;;;;;10.58;4.85;;;;;;;23.51;47.44;99142.45;1784743;80;21165;-73
2021/04/30 10:49:21;;;;;;;8.40;5.60;;;;;;;23.59;47.52;99123.48;1785058;80;21191;-74
2021/04/30 10:52:19;;;;;;;7.92;5.72;;;;;;;23.67;47.76;99121.05;1781261;78;21201;-74
2021/04/30 10:55:05;;;;;;;7.62;5.42;;;;;;;23.76;47.65;99125.41;1802664;79;22174;-74
2021/04/30 10:57:53;;;;;;;8.98;6.17;;;;;;;23.85;48.45;99127.86;1784297;80;22247;-74
2021/04/30 11:00:41;;;;;;;5.80;5.28;;;;;;;23.95;48.91;99112.13;1773501;80;21166;-75
2021/04/30 11:03:20;;;;;;;7.37;5.45;;;;;;;24.01;49.06;99107.00;1733513;82;21223;-74
2021/04/30 11:05:57;;;;;;;12.13;5.72;;;;;;;24.07;48.83;99113.23;1785690;80;21192;-74
2021/04/30 11:08:50;;;;;;;6.58;5.30;;;;;;;24.13;48.77;99134.66;1782280;78;21121;-74
2021/04/30 11:11:40;;;;;;;7.50;5.40;;;;;;;24.19;48.71;99120.54;1778433;80;22710;-74
2021/04/30 11:14:27;;;;;;;8.60;6.58;;;;;;;24.23;48.19;99106.69;1833378;77;21123;-73
2021/04/30 11:16:56;;;;;;;7.92;5.15;;;;;;;24.26;48.01;99097.18;1839293;77;21240;-75
2021/04/30 11:19:28;;;;;;;9.30;4.90;;;;;;;24.30;47.61;99098.28;1802611;77;21108;-73
2021/04/30 11:22:10;;;;;;;10.85;5.90;;;;;;;24.36;48.32;99106.69;1823523;77;21614;-73
2021/04/30 11:24:42;;;;;;;6.05;5.10;;;;;;;24.41;48.65;99102.58;1792601;77;21323;-73
2021/04/30 11:27:23;;;;;;;8.20;5.72;;;;;;;24.45;48.25;99112.34;1784899;80;21185;-72
2021/04/30 11:29:52;;;;;;;7.10;5.03;;;;;;;24.49;48.17;99101.20;1839991;77;21131;-72
2021/04/30 11:32:27;;;;;;;12.93;6.10;;;;;;;24.52;47.66;99100.14;1829800;77;21157;-75
2021/04/30 11:35:01;;;;;;;7.35;5.28;;;;;;;24.56;47.47;99092.82;1758778;81;21123;-72
2021/04/30 11:37:30;;;;;;;;;;;;;;;24.59;47.78;99097.68;1844894;77;22264;-71
2021/04/30 11:40:00;;;;;;;8.63;5.58;;;;;;;24.61;47.70;99089.55;1819071;77;20293;-73
2021/04/30 11:42:32;;;;;;;7.45;5.62;;;;;;;24.58;47.97;99101.50;1758444;81;21160;-72
2021/04/30 11:45:00;;;;;;;6.25;5.47;;;;;;;24.61;47.39;99081.92;1827404;77;21196;-68
2021/04/30 11:47:33;;;;;;;5.47;4.87;;;;;;;24.65;47.26;99085.73;1779279;80;21147;-72
2021/04/30 11:50:08;;;;;;;8.33;5.58;;;;;;;24.67;47.10;99069.42;1838113;77;21363;-71
2021/04/30 11:52:41;;;;;;;5.58;5.05;;;;;;;24.71;47.44;99079.19;1837313;77;21132;-70